^^
Saratoga-Weather Station Historical Data
Daily Summary for February 23, 2021 Units:  Metric    English   Both
Daily Weekly Monthly Yearly Custom
  High: Low: Average:
Temperature: 24.1 °C 15.8 °C 18.6 °C
Dew Point: 17 °C 14.1 °C 15.3 °C
Humidity: 93% 58% 82%
Wind Speed: 19.5km/h 0km/h 4.9km/h
Wind Gust: 19.3km/h - -
Wind- - SW
Pressure: 1022.7 hPa 1019.0 hPa -
Precipitation: 0.0 mm    
Historical Graphs
 
 
Tabular Data for February 23, 2021
Time Temperature Dew Point Pressure Wind Wind Speed Wind Gust Humidity Rainfall Rate (Hourly) solar
00:01 16.6 °C 14.4 °C 1019.3 hPa West 4.7 km/h 6.4 km/h 87% 0.0 mm 0 W/m2
00:06 16.5 °C 14.5 °C 1019.3 hPa West 4.7 km/h 6.4 km/h 88% 0.0 mm 0 W/m2
00:11 16.4 °C 14.4 °C 1019.3 hPa WSW 4.7 km/h 6.4 km/h 88% 0.0 mm 0 W/m2
00:16 16.4 °C 14.4 °C 1019.3 hPa WNW 3.2 km/h 9.7 km/h 88% 0.0 mm 0 W/m2
00:21 16.4 °C 14.6 °C 1019.3 hPa West 6.4 km/h 6.4 km/h 89% 0.0 mm 0 W/m2
00:27 16.4 °C 14.6 °C 1019.3 hPa West 6.4 km/h 8 km/h 89% 0.0 mm 0 W/m2
00:32 16.4 °C 14.6 °C 1019.3 hPa West 3.2 km/h 6.4 km/h 89% 0.0 mm 0 W/m2
00:37 16.4 °C 14.6 °C 1019.3 hPa WNW 3.2 km/h 6.4 km/h 89% 0.0 mm 0 W/m2
00:42 16.4 °C 14.6 °C 1019.3 hPa WSW 3.2 km/h 6.4 km/h 89% 0.0 mm 0 W/m2
00:47 16.4 °C 14.6 °C 1019.3 hPa West 3.2 km/h 4.8 km/h 89% 0.0 mm 0 W/m2
00:52 16.4 °C 14.6 °C 1019.3 hPa West 4.7 km/h 6.4 km/h 89% 0.0 mm 0 W/m2
00:57 16.4 °C 14.6 °C 1019.3 hPa WNW 4.7 km/h 6.4 km/h 89% 0.0 mm 0 W/m2
01:02 16.4 °C 14.6 °C 1019.3 hPa WSW 3.2 km/h 9.7 km/h 89% 0.0 mm 0 W/m2
01:07 16.4 °C 14.6 °C 1019.3 hPa WSW 4.7 km/h 6.4 km/h 89% 0.0 mm 0 W/m2
01:12 16.4 °C 14.6 °C 1019.3 hPa West 9.7 km/h 9.7 km/h 89% 0.0 mm 0 W/m2
01:17 16.3 °C 14.5 °C 1019.3 hPa Calm   6.4 km/h 89% 0.0 mm 0 W/m2
01:22 16.3 °C 14.5 °C 1019.3 hPa West 3.2 km/h 9.7 km/h 89% 0.0 mm 0 W/m2
01:27 16.3 °C 14.5 °C 1019.3 hPa West 6.4 km/h 9.7 km/h 89% 0.0 mm 0 W/m2
01:32 16.3 °C 14.5 °C 1019.3 hPa WNW 6.4 km/h 16.1 km/h 89% 0.0 mm 0 W/m2
01:37 16.3 °C 14.5 °C 1019.3 hPa West 6.4 km/h 6.4 km/h 89% 0.0 mm 0 W/m2
01:42 16.3 °C 14.7 °C 1019.3 hPa West 9.7 km/h 16.1 km/h 90% 0.0 mm 0 W/m2
01:47 16.2 °C 14.6 °C 1019.0 hPa WSW 4.7 km/h 6.4 km/h 90% 0.0 mm 0 W/m2
01:52 16.2 °C 14.6 °C 1019.0 hPa WSW 3.2 km/h 6.4 km/h 90% 0.0 mm 0 W/m2
01:57 16.2 °C 14.6 °C 1019.3 hPa WNW 3.2 km/h 11.3 km/h 90% 0.0 mm 0 W/m2
02:02 16.1 °C 14.5 °C 1019.0 hPa WNW 7.9 km/h 9.7 km/h 90% 0.0 mm 0 W/m2
02:07 16.1 °C 14.3 °C 1019.3 hPa WNW 4.7 km/h 9.7 km/h 89% 0.0 mm 0 W/m2
02:12 16.1 °C 14.3 °C 1019.0 hPa WNW 6.4 km/h 11.3 km/h 89% 0.0 mm 0 W/m2
02:17 16.1 °C 14.3 °C 1019.3 hPa WNW 3.2 km/h 12.9 km/h 89% 0.0 mm 0 W/m2
02:22 16 °C 14.2 °C 1019.3 hPa WNW 4.7 km/h 11.3 km/h 89% 0.0 mm 0 W/m2
02:27 15.9 °C 14.1 °C 1019.3 hPa West 3.2 km/h 8 km/h 89% 0.0 mm 0 W/m2
02:32 15.9 °C 14.1 °C 1019.3 hPa WNW 6.4 km/h 9.7 km/h 89% 0.0 mm 0 W/m2
02:37 15.9 °C 14.3 °C 1019.3 hPa South 4.7 km/h 8 km/h 90% 0.0 mm 0 W/m2
02:42 15.8 °C 14.2 °C 1019.3 hPa West 3.2 km/h 9.7 km/h 90% 0.0 mm 0 W/m2
02:47 15.9 °C 14.3 °C 1019.3 hPa West 3.2 km/h 6.4 km/h 90% 0.0 mm 0 W/m2
02:52 15.9 °C 14.3 °C 1019.3 hPa West 1.4 km/h 3.2 km/h 90% 0.0 mm 0 W/m2
02:57 15.9 °C 14.3 °C 1019.3 hPa West 3.2 km/h 6.4 km/h 90% 0.0 mm 0 W/m2
03:02 15.9 °C 14.3 °C 1019.3 hPa WSW 7.9 km/h 12.9 km/h 90% 0.0 mm 0 W/m2
03:07 15.9 °C 14.3 °C 1019.3 hPa West 4.7 km/h 6.4 km/h 90% 0.0 mm 0 W/m2
03:12 15.9 °C 14.3 °C 1019.0 hPa WNW 1.4 km/h 6.4 km/h 90% 0.0 mm 0 W/m2
03:17 15.9 °C 14.3 °C 1019.0 hPa West 3.2 km/h 4.8 km/h 90% 0.0 mm 0 W/m2
03:22 15.9 °C 14.4 °C 1019.0 hPa West 9.7 km/h 11.3 km/h 91% 0.0 mm 0 W/m2
03:27 15.8 °C 14.3 °C 1019.0 hPa NW 4.7 km/h 11.3 km/h 91% 0.0 mm 0 W/m2
03:32 15.8 °C 14.3 °C 1019.0 hPa West 3.2 km/h 8 km/h 91% 0.0 mm 0 W/m2
03:37 15.8 °C 14.3 °C 1019.0 hPa WSW 4.7 km/h 8 km/h 91% 0.0 mm 0 W/m2
03:42 15.8 °C 14.5 °C 1019.0 hPa West 3.2 km/h 6.4 km/h 92% 0.0 mm 0 W/m2
03:47 15.8 °C 14.5 °C 1019.3 hPa WSW 6.4 km/h 8 km/h 92% 0.0 mm 0 W/m2
03:52 15.8 °C 14.5 °C 1019.0 hPa West 3.2 km/h 6.4 km/h 92% 0.0 mm 0 W/m2
03:57 15.8 °C 14.5 °C 1019.0 hPa WSW 1.4 km/h 8 km/h 92% 0.0 mm 0 W/m2
04:02 15.8 °C 14.5 °C 1019.0 hPa West 3.2 km/h 14.5 km/h 92% 0.0 mm 0 W/m2
04:07 15.8 °C 14.5 °C 1019.3 hPa WSW 4.7 km/h 16.1 km/h 92% 0.0 mm 0 W/m2
04:12 15.8 °C 14.5 °C 1019.3 hPa WSW 3.2 km/h 12.9 km/h 92% 0.0 mm 0 W/m2
04:17 15.8 °C 14.5 °C 1019.0 hPa WNW 4.7 km/h 16.1 km/h 92% 0.0 mm 0 W/m2
04:22 15.8 °C 14.5 °C 1019.0 hPa WNW 6.4 km/h 9.7 km/h 92% 0.0 mm 0 W/m2
04:27 15.8 °C 14.5 °C 1019.0 hPa WNW 3.2 km/h 16.1 km/h 92% 0.0 mm 0 W/m2
04:32 15.9 °C 14.6 °C 1019.0 hPa West 6.4 km/h 11.3 km/h 92% 0.0 mm 0 W/m2
04:37 15.9 °C 14.8 °C 1019.0 hPa West 3.2 km/h 16.1 km/h 93% 0.0 mm 0 W/m2
04:42 15.8 °C 14.7 °C 1019.0 hPa West 4.7 km/h 12.9 km/h 93% 0.0 mm 0 W/m2
04:47 15.8 °C 14.7 °C 1019.0 hPa West 3.2 km/h 12.9 km/h 93% 0.0 mm 0 W/m2
04:52 15.8 °C 14.7 °C 1019.0 hPa WNW 4.7 km/h 6.4 km/h 93% 0.0 mm 0 W/m2
04:57 15.8 °C 14.7 °C 1019.0 hPa WSW 3.2 km/h 12.9 km/h 93% 0.0 mm 0 W/m2
05:02 15.8 °C 14.7 °C 1019.0 hPa WSW 4.7 km/h 9.7 km/h 93% 0.0 mm 0 W/m2
05:07 15.8 °C 14.7 °C 1019.0 hPa West 4.7 km/h 11.3 km/h 93% 0.0 mm 0 W/m2
05:12 15.8 °C 14.7 °C 1019.0 hPa WNW 7.9 km/h 12.9 km/h 93% 0.0 mm 0 W/m2
05:17 15.8 °C 14.7 °C 1019.0 hPa WSW 3.2 km/h 9.7 km/h 93% 0.0 mm 0 W/m2
05:22 15.9 °C 14.8 °C 1019.0 hPa WNW 6.4 km/h 9.7 km/h 93% 0.0 mm 0 W/m2
05:27 15.9 °C 14.8 °C 1019.0 hPa WNW 6.4 km/h 8 km/h 93% 0.0 mm 0 W/m2
05:32 16 °C 14.9 °C 1019.0 hPa West 4.7 km/h 8 km/h 93% 0.0 mm 0 W/m2
05:37 16.1 °C 15 °C 1019.0 hPa WNW 1.4 km/h 9.7 km/h 93% 0.0 mm 0 W/m2
05:42 16.1 °C 15 °C 1019.0 hPa West 11.1 km/h 11.3 km/h 93% 0.0 mm 0 W/m2
05:47 16.1 °C 15 °C 1019.0 hPa West 9.7 km/h 9.7 km/h 93% 0.0 mm 0 W/m2
05:52 16.1 °C 15 °C 1019.0 hPa West 4.7 km/h 11.3 km/h 93% 0.0 mm 0 W/m2
05:57 16.2 °C 15.1 °C 1019.0 hPa West 4.7 km/h 8 km/h 93% 0.0 mm 0 W/m2
06:02 16.2 °C 15.1 °C 1019.0 hPa West 6.4 km/h 6.4 km/h 93% 0.0 mm 0 W/m2
06:07 16.2 °C 15.1 °C 1019.0 hPa WSW 11.1 km/h 12.9 km/h 93% 0.0 mm 0 W/m2
06:12 16.2 °C 15.1 °C 1019.0 hPa NW 4.7 km/h 11.3 km/h 93% 0.0 mm 0 W/m2
06:17 16.2 °C 14.9 °C 1019.0 hPa SW 9.7 km/h 14.5 km/h 92% 0.0 mm 0 W/m2
06:22 16.2 °C 14.9 °C 1019.0 hPa West 6.4 km/h 11.3 km/h 92% 0.0 mm 0 W/m2
06:27 16.3 °C 15 °C 1019.0 hPa WSW 3.2 km/h 6.4 km/h 92% 0.0 mm 0 W/m2
06:32 16.3 °C 15 °C 1019.0 hPa West 4.7 km/h 6.4 km/h 92% 0.0 mm 0 W/m2
06:37 16.3 °C 15 °C 1019.3 hPa SW 4.7 km/h 9.7 km/h 92% 0.0 mm 0 W/m2
06:42 16.3 °C 15 °C 1019.3 hPa WSW 11.1 km/h 12.9 km/h 92% 0.0 mm 0 W/m2
06:47 16.3 °C 15 °C 1019.3 hPa West 6.4 km/h 9.7 km/h 92% 0.0 mm 0 W/m2
06:52 16.3 °C 15 °C 1019.3 hPa WSW 4.7 km/h 9.7 km/h 92% 0.0 mm 0 W/m2
06:57 16.3 °C 15 °C 1019.3 hPa WNW 3.2 km/h 17.7 km/h 92% 0.0 mm 0 W/m2
07:02 16.4 °C 14.9 °C 1019.3 hPa West 16.3 km/h 16.1 km/h 91% 0.0 mm 5 W/m2
07:07 16.4 °C 15.1 °C 1019.3 hPa West 13 km/h 12.9 km/h 92% 0.0 mm 7 W/m2
07:12 16.4 °C 14.9 °C 1019.3 hPa WNW 6.4 km/h 12.9 km/h 91% 0.0 mm 7 W/m2
07:17 16.4 °C 15.1 °C 1019.3 hPa West 9.7 km/h 12.9 km/h 92% 0.0 mm 9 W/m2
07:22 16.3 °C 15 °C 1019.3 hPa WNW 6.4 km/h 11.3 km/h 92% 0.0 mm 9 W/m2
07:27 16.3 °C 14.8 °C 1019.3 hPa WSW 11.1 km/h 12.9 km/h 91% 0.0 mm 11 W/m2
07:32 16.3 °C 14.8 °C 1019.3 hPa WNW 3.2 km/h 9.7 km/h 91% 0.0 mm 9 W/m2
07:37 16.3 °C 14.8 °C 1019.3 hPa West 16.3 km/h 16.1 km/h 91% 0.0 mm 11 W/m2
07:42 16.3 °C 14.8 °C 1019.3 hPa WSW 6.4 km/h 12.9 km/h 91% 0.0 mm 12 W/m2
07:47 16.3 °C 14.8 °C 1019.3 hPa West 16.1 km/h 16.1 km/h 91% 0.0 mm 14 W/m2
07:52 16.3 °C 14.8 °C 1019.3 hPa WNW 6.4 km/h 12.9 km/h 91% 0.0 mm 21 W/m2
07:57 16.3 °C 14.8 °C 1019.3 hPa WSW 6.4 km/h 12.9 km/h 91% 0.0 mm 21 W/m2
08:02 16.3 °C 14.8 °C 1019.3 hPa WNW 4.7 km/h 9.7 km/h 91% 0.0 mm 21 W/m2
08:07 16.3 °C 14.8 °C 1019.3 hPa West 6.4 km/h 11.3 km/h 91% 0.0 mm 26 W/m2
08:12 16.4 °C 14.9 °C 1019.6 hPa WSW 3.2 km/h 14.5 km/h 91% 0.0 mm 30 W/m2
08:17 16.4 °C 14.9 °C 1019.6 hPa WNW 13 km/h 12.9 km/h 91% 0.0 mm 28 W/m2
08:22 16.4 °C 15.1 °C 1019.6 hPa West 4.7 km/h 6.4 km/h 92% 0.0 mm 26 W/m2
08:27 16.4 °C 15.1 °C 1019.6 hPa WSW 6.4 km/h 12.9 km/h 92% 0.0 mm 30 W/m2
08:32 16.4 °C 15.1 °C 1019.6 hPa SW 7.9 km/h 12.9 km/h 92% 0.0 mm 30 W/m2
08:37 16.3 °C 15 °C 1019.6 hPa WNW 6.4 km/h 11.3 km/h 92% 0.0 mm 33 W/m2
08:42 16.3 °C 15 °C 1019.6 hPa West 9.7 km/h 12.9 km/h 92% 0.0 mm 35 W/m2
08:47 16.3 °C 15 °C 1019.6 hPa WSW 4.7 km/h 8 km/h 92% 0.0 mm 39 W/m2
08:52 16.3 °C 15 °C 1019.6 hPa West 6.4 km/h 6.4 km/h 92% 0.0 mm 53 W/m2
08:57 16.3 °C 15 °C 1019.6 hPa West 4.7 km/h 6.4 km/h 92% 0.0 mm 69 W/m2
09:02 16.4 °C 15.1 °C 1019.6 hPa West 4.7 km/h 12.9 km/h 92% 0.0 mm 56 W/m2
09:07 16.4 °C 15.1 °C 1019.6 hPa WNW 4.7 km/h 12.9 km/h 92% 0.0 mm 77 W/m2
09:12 16.5 °C 15.2 °C 1019.6 hPa WSW 4.7 km/h 11.3 km/h 92% 0.0 mm 102 W/m2
09:17 16.6 °C 15.3 °C 1019.6 hPa WNW 6.4 km/h 12.9 km/h 92% 0.0 mm 139 W/m2
09:23 16.7 °C 15.4 °C 1019.6 hPa WNW 11.1 km/h 11.3 km/h 92% 0.0 mm 134 W/m2
09:28 16.8 °C 15.3 °C 1019.6 hPa West 14.3 km/h 16.1 km/h 91% 0.0 mm 141 W/m2
09:33 16.9 °C 15.4 °C 1019.6 hPa West 11.1 km/h 14.5 km/h 91% 0.0 mm 142 W/m2
09:38 17 °C 15.5 °C 1019.6 hPa NW 6.4 km/h 12.9 km/h 91% 0.0 mm 128 W/m2
09:43 17.1 °C 15.6 °C 1019.6 hPa WNW 6.4 km/h 11.3 km/h 91% 0.0 mm 139 W/m2
09:48 17.1 °C 15.6 °C 1019.6 hPa WSW 13 km/h 12.9 km/h 91% 0.0 mm 155 W/m2
09:53 17.2 °C 15.5 °C 1019.6 hPa WNW 6.4 km/h 12.9 km/h 90% 0.0 mm 156 W/m2
09:58 17.3 °C 15.6 °C 1019.6 hPa West 4.7 km/h 14.5 km/h 90% 0.0 mm 197 W/m2
10:03 17.4 °C 15.7 °C 1019.6 hPa West 14.3 km/h 16.1 km/h 90% 0.0 mm 220 W/m2
10:08 17.4 °C 15.6 °C 1019.6 hPa West 9.7 km/h 12.9 km/h 89% 0.0 mm 181 W/m2
10:13 17.6 °C 15.8 °C 1019.6 hPa WNW 7.9 km/h 12.9 km/h 89% 0.0 mm 176 W/m2
10:18 17.6 °C 15.8 °C 1019.6 hPa WSW 6.4 km/h 14.5 km/h 89% 0.0 mm 204 W/m2
10:23 17.6 °C 15.6 °C 1019.6 hPa NW 9.7 km/h 16.1 km/h 88% 0.0 mm 243 W/m2
10:28 17.7 °C 15.7 °C 1019.6 hPa WSW 6.4 km/h 14.5 km/h 88% 0.0 mm 253 W/m2
10:33 17.8 °C 15.8 °C 1020.0 hPa West 16.1 km/h 16.1 km/h 88% 0.0 mm 190 W/m2
10:38 17.9 °C 15.9 °C 1019.6 hPa WSW 7.9 km/h 12.9 km/h 88% 0.0 mm 183 W/m2
10:43 17.9 °C 15.7 °C 1020.0 hPa West 6.4 km/h 12.9 km/h 87% 0.0 mm 176 W/m2
10:48 18 °C 16 °C 1020.0 hPa West 3.2 km/h 16.1 km/h 88% 0.0 mm 220 W/m2
10:53 18.1 °C 15.9 °C 1020.0 hPa WSW 7.9 km/h 12.9 km/h 87% 0.0 mm 171 W/m2
10:58 18.1 °C 15.9 °C 1020.0 hPa WSW 4.7 km/h 16.1 km/h 87% 0.0 mm 169 W/m2
11:03 18.2 °C 16 °C 1020.0 hPa WSW 6.4 km/h 12.9 km/h 87% 0.0 mm 357 W/m2
11:08 18.4 °C 16 °C 1020.0 hPa West 4.7 km/h 11.3 km/h 86% 0.0 mm 274 W/m2
11:13 18.5 °C 16.1 °C 1020.3 hPa WSW 7.9 km/h 16.1 km/h 86% 0.0 mm 183 W/m2
11:18 18.4 °C 16 °C 1020.3 hPa West 14.3 km/h 14.5 km/h 86% 0.0 mm 248 W/m2
11:23 18.4 °C 16 °C 1020.3 hPa West 13 km/h 16.1 km/h 86% 0.0 mm 272 W/m2
11:28 18.5 °C 16.1 °C 1020.3 hPa NW 4.7 km/h 11.3 km/h 86% 0.0 mm 253 W/m2
11:33 18.5 °C 15.9 °C 1020.0 hPa WNW 12.9 km/h 12.9 km/h 85% 0.0 mm 279 W/m2
11:38 18.7 °C 16.3 °C 1020.0 hPa WNW 7.9 km/h 12.9 km/h 86% 0.0 mm 295 W/m2
11:43 18.8 °C 16.2 °C 1020.0 hPa West 4.7 km/h 9.7 km/h 85% 0.0 mm 360 W/m2
11:48 19.1 °C 16.5 °C 1020.0 hPa West 6.4 km/h 12.9 km/h 85% 0.0 mm 441 W/m2
11:53 19.2 °C 16.2 °C 1020.3 hPa NW 3.2 km/h 8 km/h 83% 0.0 mm 396 W/m2
11:58 19.3 °C 16.3 °C 1020.3 hPa NW 3.2 km/h 12.9 km/h 83% 0.0 mm 348 W/m2
12:03 19.4 °C 16.4 °C 1020.3 hPa WNW 4.7 km/h 9.7 km/h 83% 0.0 mm 413 W/m2
12:08 19.4 °C 16.4 °C 1020.3 hPa WNW 6.4 km/h 12.9 km/h 83% 0.0 mm 221 W/m2
12:13 19.4 °C 16.2 °C 1020.3 hPa West 4.7 km/h 6.4 km/h 82% 0.0 mm 195 W/m2
12:18 19.4 °C 16.2 °C 1020.3 hPa WSW 6.4 km/h 9.7 km/h 82% 0.0 mm 213 W/m2
12:23 19.4 °C 16.4 °C 1020.3 hPa West 3.2 km/h 4.8 km/h 83% 0.0 mm 279 W/m2
12:28 19.5 °C 16.3 °C 1020.3 hPa West 6.4 km/h 9.7 km/h 82% 0.0 mm 299 W/m2
12:33 19.6 °C 16.2 °C 1020.3 hPa NW 4.7 km/h 4.8 km/h 81% 0.0 mm 255 W/m2
12:38 19.7 °C 16.3 °C 1020.3 hPa Calm   4.8 km/h 81% 0.0 mm 207 W/m2
12:43 19.7 °C 16.2 °C 1020.3 hPa West 3.2 km/h 6.4 km/h 80% 0.0 mm 91 W/m2
12:48 19.7 °C 16.2 °C 1020.3 hPa NNW 3.2 km/h 4.8 km/h 80% 0.0 mm 88 W/m2
12:53 19.7 °C 16.3 °C 1020.3 hPa West 4.7 km/h 14.5 km/h 81% 0.0 mm 197 W/m2
12:58 19.7 °C 16.2 °C 1020.3 hPa NW 4.7 km/h 6.4 km/h 80% 0.0 mm 246 W/m2
13:03 19.9 °C 16.3 °C 1020.3 hPa NE 1.4 km/h 12.9 km/h 80% 0.0 mm 227 W/m2
13:08 20.1 °C 16.5 °C 1020.3 hPa NE 3.2 km/h 6.4 km/h 80% 0.0 mm 292 W/m2
13:13 20.1 °C 16.5 °C 1020.3 hPa North 1.4 km/h 1.6 km/h 80% 0.0 mm 149 W/m2
13:18 20.2 °C 16.4 °C 1020.3 hPa East 3.2 km/h 4.8 km/h 79% 0.0 mm 74 W/m2
13:23 20.1 °C 16.3 °C 1020.3 hPa East 1.4 km/h 4.8 km/h 79% 0.0 mm 149 W/m2
13:28 20.1 °C 16.5 °C 1020.3 hPa Calm   3.2 km/h 80% 0.0 mm 213 W/m2
13:33 20.2 °C 16.8 °C 1020.3 hPa East 6.4 km/h 6.4 km/h 81% 0.0 mm 281 W/m2
13:38 20.6 °C 17 °C 1020.3 hPa SE 3.2 km/h 8 km/h 80% 0.0 mm 986 W/m2
13:43 21 °C 17 °C 1020.3 hPa NNW 1.4 km/h 3.2 km/h 78% 0.0 mm 267 W/m2
13:48 21.2 °C 16.6 °C 1020.3 hPa NE 3.2 km/h 8 km/h 75% 0.0 mm 272 W/m2
13:53 21.2 °C 16.6 °C 1020.3 hPa West 3.2 km/h 3.2 km/h 75% 0.0 mm 260 W/m2
13:58 21.2 °C 16.4 °C 1020.3 hPa WNW 3.2 km/h 8 km/h 74% 0.0 mm 232 W/m2
14:03 21.1 °C 16.3 °C 1020.3 hPa NW 6.4 km/h 6.4 km/h 74% 0.0 mm 348 W/m2
14:08 21.2 °C 16.4 °C 1020.3 hPa East 1.4 km/h 6.4 km/h 74% 0.0 mm 329 W/m2
14:13 21.2 °C 15.9 °C 1020.3 hPa Calm   6.4 km/h 72% 0.0 mm 313 W/m2
14:18 21.4 °C 16.6 °C 1020.3 hPa NNW 3.2 km/h 3.2 km/h 74% 0.0 mm 392 W/m2
14:23 21.5 °C 15.3 °C 1020.3 hPa Calm   8 km/h 68% 0.0 mm 216 W/m2
14:28 21.7 °C 15.3 °C 1020.3 hPa NW 4.7 km/h 9.7 km/h 67% 0.0 mm 216 W/m2
14:33 21.7 °C 15.1 °C 1020.3 hPa ENE 4.7 km/h 4.8 km/h 66% 0.0 mm 185 W/m2
14:38 22.1 °C 15.4 °C 1020.3 hPa NE 7.9 km/h 9.7 km/h 66% 0.0 mm 946 W/m2
14:43 22.1 °C 15.2 °C 1020.3 hPa NE 6.4 km/h 11.3 km/h 65% 0.0 mm 137 W/m2
14:48 22.2 °C 15.3 °C 1020.3 hPa ESE 1.4 km/h 16.1 km/h 65% 0.0 mm 775 W/m2
14:53 22.4 °C 15.5 °C 1020.3 hPa ESE 6.4 km/h 12.9 km/h 65% 0.0 mm 816 W/m2
14:58 22.6 °C 15.7 °C 1020.0 hPa ENE 7.9 km/h 9.7 km/h 65% 0.0 mm 888 W/m2
15:03 22.7 °C 15.3 °C 1020.0 hPa NE 6.4 km/h 16.1 km/h 63% 0.0 mm 909 W/m2
15:08 22.6 °C 15.2 °C 1020.0 hPa NNE 1.4 km/h 11.3 km/h 63% 0.0 mm 840 W/m2
15:13 22.6 °C 14.7 °C 1020.0 hPa WNW 1.4 km/h 14.5 km/h 61% 0.0 mm 782 W/m2
15:18 22.9 °C 15.2 °C 1020.0 hPa SE 4.7 km/h 12.9 km/h 62% 0.0 mm 729 W/m2
15:23 23.1 °C 14.9 °C 1020.0 hPa ESE 6.4 km/h 17.7 km/h 60% 0.0 mm 722 W/m2
15:28 23.1 °C 14.6 °C 1020.0 hPa NW 1.4 km/h 9.7 km/h 59% 0.0 mm 735 W/m2
15:33 23.4 °C 15.2 °C 1020.0 hPa East 6.4 km/h 17.7 km/h 60% 0.0 mm 715 W/m2
15:38 23.7 °C 14.9 °C 1020.0 hPa ENE 7.9 km/h 16.1 km/h 58% 0.0 mm 698 W/m2
15:43 23.5 °C 14.8 °C 1020.0 hPa ENE 1.4 km/h 17.7 km/h 58% 0.0 mm 682 W/m2
15:48 23.5 °C 15 °C 1020.0 hPa SE 4.7 km/h 14.5 km/h 59% 0.0 mm 698 W/m2
15:53 23.5 °C 15 °C 1020.0 hPa NE 11.1 km/h 17.7 km/h 59% 0.0 mm 731 W/m2
15:59 23.4 °C 14.9 °C 1020.0 hPa ESE 4.7 km/h 9.7 km/h 59% 0.0 mm 691 W/m2
16:04 23.6 °C 14.9 °C 1020.0 hPa NE 6.4 km/h 14.5 km/h 58% 0.0 mm 661 W/m2
16:09 23.6 °C 15.1 °C 1020.0 hPa North 3.2 km/h 9.7 km/h 59% 0.0 mm 654 W/m2
16:14 23.7 °C 14.9 °C 1020.0 hPa North 9.7 km/h 14.5 km/h 58% 0.0 mm 675 W/m2
16:19 23.8 °C 15 °C 1020.0 hPa North 3.2 km/h 8 km/h 58% 0.0 mm 650 W/m2
16:24 23.9 °C 15.4 °C 1020.0 hPa NNW 3.2 km/h 8 km/h 59% 0.0 mm 659 W/m2
16:29 24.1 °C 15.6 °C 1020.0 hPa NNW 3.2 km/h 6.4 km/h 59% 0.0 mm 577 W/m2
16:34 23.8 °C 15.8 °C 1020.0 hPa NNW 3.2 km/h 12.9 km/h 61% 0.0 mm 139 W/m2
16:39 23.4 °C 15.7 °C 1020.0 hPa ENE 3.2 km/h 6.4 km/h 62% 0.0 mm 130 W/m2
16:44 23.1 °C 15.7 °C 1020.0 hPa SSE 1.4 km/h 4.8 km/h 63% 0.0 mm 230 W/m2
16:49 22.8 °C 15.6 °C 1020.0 hPa NE 4.7 km/h 6.4 km/h 64% 0.0 mm 601 W/m2
16:54 22.9 °C 15.2 °C 1020.0 hPa NNE 4.7 km/h 8 km/h 62% 0.0 mm 246 W/m2
16:59 23 °C 15.8 °C 1020.0 hPa Calm   4.8 km/h 64% 0.0 mm 624 W/m2
17:04 23.3 °C 15.6 °C 1020.0 hPa WNW 4.7 km/h 8 km/h 62% 0.0 mm 624 W/m2
17:09 23.6 °C 15.9 °C 1020.0 hPa East 3.2 km/h 4.8 km/h 62% 0.0 mm 531 W/m2
17:14 23.7 °C 14.9 °C 1020.0 hPa North 3.2 km/h 11.3 km/h 58% 0.0 mm 503 W/m2
17:19 23.7 °C 16 °C 1020.3 hPa WNW 4.7 km/h 8 km/h 62% 0.0 mm 482 W/m2
17:24 23.8 °C 15.6 °C 1020.3 hPa WNW 9.7 km/h 11.3 km/h 60% 0.0 mm 468 W/m2
17:29 23.5 °C 15.5 °C 1020.3 hPa WNW 13 km/h 16.1 km/h 61% 0.0 mm 454 W/m2
17:34 23.4 °C 15.7 °C 1020.0 hPa NW 7.9 km/h 8 km/h 62% 0.0 mm 439 W/m2
17:39 23.4 °C 15.4 °C 1020.0 hPa West 3.2 km/h 14.5 km/h 61% 0.0 mm 443 W/m2
17:44 23.5 °C 15.8 °C 1020.0 hPa NNW 1.4 km/h 6.4 km/h 62% 0.0 mm 429 W/m2
17:49 23.6 °C 15.4 °C 1020.0 hPa ENE 7.9 km/h 9.7 km/h 60% 0.0 mm 452 W/m2
17:54 23.6 °C 15.6 °C 1020.0 hPa ENE 1.4 km/h 6.4 km/h 61% 0.0 mm 494 W/m2
17:59 23.8 °C 15.8 °C 1020.0 hPa NNE 3.2 km/h 11.3 km/h 61% 0.0 mm 464 W/m2
18:04 24 °C 15.8 °C 1020.3 hPa NW 11.1 km/h 14.5 km/h 60% 0.0 mm 77 W/m2
18:09 23.6 °C 15.9 °C 1020.3 hPa East 19.5 km/h 19.3 km/h 62% 0.0 mm 51 W/m2
18:14 22.9 °C 16 °C 1020.3 hPa NW 1.4 km/h 14.5 km/h 65% 0.0 mm 51 W/m2
18:19 22.3 °C 15.6 °C 1020.7 hPa NNE 4.7 km/h 12.9 km/h 66% 0.0 mm 63 W/m2
18:24 21.8 °C 15.6 °C 1020.7 hPa NNW 3.2 km/h 9.7 km/h 68% 0.0 mm 79 W/m2
18:29 21.4 °C 15.5 °C 1020.7 hPa SSW 1.4 km/h 17.7 km/h 69% 0.0 mm 77 W/m2
18:34 21.2 °C 15.5 °C 1020.7 hPa West 4.7 km/h 12.9 km/h 70% 0.0 mm 74 W/m2
18:39 21.1 °C 15.6 °C 1020.7 hPa NNE 7.9 km/h 9.7 km/h 71% 0.0 mm 91 W/m2
18:44 21.1 °C 15.9 °C 1020.7 hPa NNW 1.4 km/h 8 km/h 72% 0.0 mm 255 W/m2
18:49 21.2 °C 15.9 °C 1020.7 hPa North 1.4 km/h 9.7 km/h 72% 0.0 mm 227 W/m2
18:54 21.3 °C 16 °C 1020.7 hPa North 1.4 km/h 4.8 km/h 72% 0.0 mm 214 W/m2
18:59 21.3 °C 16 °C 1020.7 hPa ENE 3.2 km/h 16.1 km/h 72% 0.0 mm 211 W/m2
19:04 21.3 °C 16 °C 1020.7 hPa ESE 3.2 km/h 9.7 km/h 72% 0.0 mm 202 W/m2
19:09 21.2 °C 15.9 °C 1020.7 hPa West 3.2 km/h 9.7 km/h 72% 0.0 mm 155 W/m2
19:14 21 °C 16 °C 1020.7 hPa West 4.7 km/h 12.9 km/h 73% 0.0 mm 171 W/m2
19:19 21 °C 16 °C 1020.7 hPa SSE 4.7 km/h 9.7 km/h 73% 0.0 mm 165 W/m2
19:24 21.1 °C 16.1 °C 1020.7 hPa East 6.4 km/h 9.7 km/h 73% 0.0 mm 160 W/m2
19:29 21.1 °C 15.9 °C 1020.7 hPa East 3.2 km/h 19.3 km/h 72% 0.0 mm 130 W/m2
19:34 20.9 °C 15.7 °C 1020.7 hPa North 4.7 km/h 8 km/h 72% 0.0 mm 111 W/m2
19:44 20.7 °C 15.5 °C 1021.0 hPa WNW 4.7 km/h 12.9 km/h 72% 0.0 mm 84 W/m2
19:49 20.6 °C 15.4 °C 1021.0 hPa NW 4.7 km/h 4.8 km/h 72% 0.0 mm 76 W/m2
19:54 20.4 °C 15.4 °C 1021.0 hPa West 4.7 km/h 6.4 km/h 73% 0.0 mm 62 W/m2
19:59 20.3 °C 15.3 °C 1021.0 hPa NW 1.4 km/h 6.4 km/h 73% 0.0 mm 42 W/m2
20:04 20.1 °C 15.3 °C 1021.3 hPa ENE 6.4 km/h 9.7 km/h 74% 0.0 mm 33 W/m2
20:09 19.8 °C 15.2 °C 1021.3 hPa SE 1.4 km/h 11.3 km/h 75% 0.0 mm 23 W/m2
20:14 19.7 °C 15.3 °C 1021.3 hPa South 1.4 km/h 6.4 km/h 76% 0.0 mm 16 W/m2
20:19 19.6 °C 15.5 °C 1021.3 hPa South 3.2 km/h 3.2 km/h 77% 0.0 mm 14 W/m2
20:24 19.4 °C 15.3 °C 1021.3 hPa NE 1.4 km/h 3.2 km/h 77% 0.0 mm 11 W/m2
20:29 19.3 °C 15.4 °C 1021.3 hPa WNW 1.4 km/h 8 km/h 78% 0.0 mm 7 W/m2
20:34 19.2 °C 15.5 °C 1021.3 hPa Calm   12.9 km/h 79% 0.0 mm 0 W/m2
20:44 19.1 °C 15.6 °C 1021.3 hPa NNW 4.7 km/h 12.9 km/h 80% 0.0 mm 0 W/m2
20:49 18.9 °C 15.4 °C 1021.3 hPa NNE 1.4 km/h 8 km/h 80% 0.0 mm 0 W/m2
20:59 18.8 °C 15.5 °C 1021.3 hPa West 6.4 km/h 6.4 km/h 81% 0.0 mm 0 W/m2
21:04 18.8 °C 15.5 °C 1021.7 hPa Calm   3.2 km/h 81% 0.0 mm 0 W/m2
21:09 18.7 °C 15.6 °C 1021.7 hPa East 1.4 km/h 4.8 km/h 82% 0.0 mm 0 W/m2
21:14 18.7 °C 15.6 °C 1021.7 hPa Calm   3.2 km/h 82% 0.0 mm 0 W/m2
21:19 18.6 °C 15.5 °C 1022.0 hPa NW 1.4 km/h 6.4 km/h 82% 0.0 mm 0 W/m2
21:24 18.6 °C 15.5 °C 1022.0 hPa East 3.2 km/h 4.8 km/h 82% 0.0 mm 0 W/m2
21:29 18.5 °C 15.4 °C 1022.0 hPa Calm   1.6 km/h 82% 0.0 mm 0 W/m2
21:34 18.4 °C 15.3 °C 1022.0 hPa ESE 1.4 km/h 3.2 km/h 82% 0.0 mm 0 W/m2
21:44 18.3 °C 15.4 °C 1022.4 hPa SW 1.4 km/h 6.4 km/h 83% 0.0 mm 0 W/m2
21:49 18.2 °C 15.3 °C 1022.4 hPa East 1.4 km/h 3.2 km/h 83% 0.0 mm 0 W/m2
21:54 18.2 °C 15.3 °C 1022.4 hPa NE 1.4 km/h 9.7 km/h 83% 0.0 mm 0 W/m2
21:59 18.2 °C 15.3 °C 1022.4 hPa NNE 1.4 km/h 9.7 km/h 83% 0.0 mm 0 W/m2
22:04 18.2 °C 15.3 °C 1022.4 hPa NW 3.2 km/h 6.4 km/h 83% 0.0 mm 0 W/m2
22:09 18.2 °C 15.3 °C 1022.4 hPa NE 3.2 km/h 9.7 km/h 83% 0.0 mm 0 W/m2
22:14 18.3 °C 15.4 °C 1022.4 hPa SW 1.4 km/h 3.2 km/h 83% 0.0 mm 0 W/m2
22:19 18.3 °C 15.4 °C 1022.4 hPa Calm   6.4 km/h 83% 0.0 mm 0 W/m2
22:24 18.3 °C 15.2 °C 1022.4 hPa ENE 1.4 km/h 6.4 km/h 82% 0.0 mm 0 W/m2
22:29 18.3 °C 15.2 °C 1022.4 hPa Calm   6.4 km/h 82% 0.0 mm 0 W/m2
22:34 18.3 °C 15.2 °C 1022.4 hPa SSE 1.4 km/h 4.8 km/h 82% 0.0 mm 0 W/m2
22:39 18.3 °C 15 °C 1022.4 hPa NW 1.4 km/h 6.4 km/h 81% 0.0 mm 0 W/m2
22:44 18.3 °C 15 °C 1022.4 hPa NNE 4.7 km/h 6.4 km/h 81% 0.0 mm 0 W/m2
22:49 18.2 °C 14.9 °C 1022.4 hPa West 1.4 km/h 4.8 km/h 81% 0.0 mm 0 W/m2
22:54 18.2 °C 14.9 °C 1022.4 hPa Calm   3.2 km/h 81% 0.0 mm 0 W/m2
22:59 18.2 °C 14.9 °C 1022.4 hPa SE 1.4 km/h 3.2 km/h 81% 0.0 mm 0 W/m2
23:04 18.2 °C 14.9 °C 1022.4 hPa NNE 3.2 km/h 8 km/h 81% 0.0 mm 0 W/m2
23:09 18.2 °C 14.7 °C 1022.4 hPa Calm   6.4 km/h 80% 0.0 mm 0 W/m2
23:14 18.2 °C 14.9 °C 1022.4 hPa NW 1.4 km/h 3.2 km/h 81% 0.0 mm 0 W/m2
23:19 18.2 °C 14.9 °C 1022.7 hPa ENE 1.4 km/h 4.8 km/h 81% 0.0 mm 0 W/m2
23:24 18.2 °C 14.7 °C 1022.7 hPa NE 4.7 km/h 6.4 km/h 80% 0.0 mm 0 W/m2
23:29 18.2 °C 14.9 °C 1022.7 hPa Calm   4.8 km/h 81% 0.0 mm 0 W/m2
23:34 18.2 °C 14.9 °C 1022.7 hPa NNW 3.2 km/h 3.2 km/h 81% 0.0 mm 0 W/m2
23:39 18.2 °C 14.9 °C 1022.7 hPa ENE 4.7 km/h 6.4 km/h 81% 0.0 mm 0 W/m2
23:44 18.2 °C 14.9 °C 1022.7 hPa North 3.2 km/h 9.7 km/h 81% 0.0 mm 0 W/m2
23:49 18.2 °C 14.9 °C 1022.7 hPa ESE 3.2 km/h 3.2 km/h 81% 0.0 mm 0 W/m2
23:54 18.1 °C 14.8 °C 1022.7 hPa East 1.4 km/h 3.2 km/h 81% 0.0 mm 0 W/m2
23:59 18.1 °C 15 °C 1022.7 hPa Calm   3.2 km/h 82% 0.0 mm 0 W/m2
Juneau County Weather
Compliments of Weather Underground - 4 mb